createdAt,value
2023-09-01T00:01:17.881Z,98208.34
2023-09-01T00:03:44.858Z,98200.59
2023-09-01T00:06:15.840Z,98199.75
2023-09-01T00:08:43.955Z,98211.25
2023-09-01T00:11:12.062Z,98199.19
2023-09-01T00:13:39.157Z,98202.50
2023-09-01T00:16:06.200Z,98196.25
2023-09-01T00:18:34.284Z,98198.88
2023-09-01T00:21:01.815Z,98191.91
2023-09-01T00:23:28.913Z,98189.31
2023-09-01T00:26:00.767Z,98193.81
2023-09-01T00:28:27.715Z,98195.44
2023-09-01T00:30:59.128Z,98192.03
2023-09-01T00:33:29.252Z,98187.84
2023-09-01T00:35:57.204Z,98187.69
2023-09-01T00:38:26.158Z,98183.19
2023-09-01T00:40:53.585Z,98189.31
2023-09-01T00:43:20.469Z,98184.06
2023-09-01T00:45:47.340Z,98185.59
2023-09-01T00:48:15.003Z,98186.72
2023-09-01T00:50:42.749Z,98193.50
2023-09-01T00:53:09.741Z,98194.28
2023-09-01T00:55:37.498Z,98186.63
2023-09-01T00:58:04.577Z,98173.34
2023-09-01T01:00:34.100Z,98171.03
2023-09-01T01:03:07.937Z,98181.75
2023-09-01T01:05:46.488Z,98178.22
2023-09-01T01:08:23.976Z,98180.25
2023-09-01T01:11:00.780Z,98180.22
2023-09-01T01:13:35.532Z,98166.19
2023-09-01T01:16:03.479Z,98164.41
2023-09-01T01:18:33.520Z,98162.66
2023-09-01T01:21:25.747Z,98177.75
2023-09-01T01:23:53.454Z,98166.34
2023-09-01T01:26:21.585Z,98169.91
2023-09-01T01:28:48.307Z,98174.19
2023-09-01T01:31:14.992Z,98179.25
2023-09-01T01:34:01.133Z,98178.47
2023-09-01T01:37:10.040Z,98176.88
2023-09-01T01:39:40.046Z,98176.97
2023-09-01T01:42:14.977Z,98179.66
2023-09-01T01:44:47.694Z,98187.72
2023-09-01T01:47:15.235Z,98189.44
2023-09-01T01:49:42.010Z,98187.72
2023-09-01T01:52:08.698Z,98191.16
2023-09-01T01:54:35.384Z,98189.69
2023-09-01T01:57:02.098Z,98198.34
2023-09-01T01:59:28.931Z,98190.56
2023-09-01T02:01:55.687Z,98198.34
2023-09-01T02:04:22.531Z,98191.34
2023-09-01T02:06:49.192Z,98195.56
2023-09-01T02:09:15.834Z,98196.56
2023-09-01T02:11:42.438Z,98188.66
2023-09-01T02:14:09.265Z,98185.91
2023-09-01T02:16:36.046Z,98188.66
2023-09-01T02:19:02.671Z,98187.81
2023-09-01T02:21:29.381Z,98196.81
2023-09-01T02:23:56.067Z,98197.59
2023-09-01T02:26:24.600Z,98193.06
2023-09-01T02:28:52.031Z,98195.69
2023-09-01T02:31:19.535Z,98194.72
2023-09-01T02:33:46.212Z,98198.16
2023-09-01T02:36:22.656Z,98204.31
2023-09-01T02:38:49.312Z,98191.47
2023-09-01T02:41:15.907Z,98203.72
2023-09-01T02:43:43.474Z,98205.31
2023-09-01T02:46:10.034Z,98204.28
2023-09-01T02:48:36.676Z,98208.69
2023-09-01T02:51:06.166Z,98198.03
2023-09-01T02:53:33.644Z,98211.13
2023-09-01T02:56:00.418Z,98212.09
2023-09-01T02:58:27.362Z,98206.72
2023-09-01T03:00:54.345Z,98211.75
2023-09-01T03:03:21.998Z,98218.53
2023-09-01T03:05:50.449Z,98216.66
2023-09-01T03:08:22.530Z,98219.03
2023-09-01T03:10:49.468Z,98211.13
2023-09-01T03:13:16.218Z,98206.41
2023-09-01T03:15:43.543Z,98204.50
2023-09-01T03:18:15.607Z,98196.53
2023-09-01T03:20:43.736Z,98192.88
2023-09-01T03:23:10.387Z,98205.22
2023-09-01T03:25:36.974Z,98209.63
2023-09-01T03:28:03.779Z,98194.69
2023-09-01T03:30:30.375Z,98201.59
2023-09-01T03:32:57.066Z,98201.41
2023-09-01T03:35:23.952Z,98206.75
2023-09-01T03:37:51.098Z,98196.97
2023-09-01T03:40:17.970Z,98194.47
2023-09-01T03:42:44.563Z,98200.78
2023-09-01T03:45:11.544Z,98200.78
2023-09-01T03:47:38.290Z,98202.44
2023-09-01T03:50:05.521Z,98194.47
2023-09-01T03:52:32.161Z,98200.81
2023-09-01T03:54:59.698Z,98198.28
2023-09-01T03:57:26.328Z,98186.13
2023-09-01T03:59:53.345Z,98185.97
2023-09-01T04:02:19.994Z,98194.94
2023-09-01T04:04:46.593Z,98184.69
2023-09-01T04:07:13.214Z,98188.34
2023-09-01T04:09:39.832Z,98188.34
2023-09-01T04:12:07.039Z,98184.94
2023-09-01T04:14:33.689Z,98185.00
2023-09-01T04:17:00.491Z,98188.53
2023-09-01T04:19:27.221Z,98195.53
2023-09-01T04:21:53.852Z,98190.38
2023-09-01T04:24:20.729Z,98203.38
2023-09-01T04:26:47.448Z,98198.69
2023-09-01T04:29:15.221Z,98196.97
2023-09-01T04:31:41.892Z,98202.91
2023-09-01T04:34:08.592Z,98205.47
2023-09-01T04:36:45.597Z,98207.06
2023-09-01T04:39:16.492Z,98205.13
2023-09-01T04:41:43.526Z,98207.78
2023-09-01T04:44:10.257Z,98205.75
2023-09-01T04:46:37.051Z,98203.19
2023-09-01T04:49:03.881Z,98202.84
2023-09-01T04:51:30.492Z,98204.69
2023-09-01T04:53:57.157Z,98194.69
2023-09-01T04:56:24.026Z,98192.00
2023-09-01T04:58:50.686Z,98194.31
2023-09-01T05:01:17.416Z,98191.22
2023-09-01T05:03:44.247Z,98194.56
2023-09-01T05:06:12.133Z,98200.47
2023-09-01T05:08:38.845Z,98200.97
2023-09-01T05:11:05.800Z,98198.13
2023-09-01T05:13:33.346Z,98197.88
2023-09-01T05:16:00.044Z,98202.69
2023-09-01T05:18:26.777Z,98194.56
2023-09-01T05:20:53.362Z,98207.50
2023-09-01T05:23:20.004Z,98215.06
2023-09-01T05:25:52.462Z,98212.13
2023-09-01T05:28:19.199Z,98218.88
2023-09-01T05:30:45.925Z,98215.84
2023-09-01T05:33:15.398Z,98216.31
2023-09-01T05:35:42.491Z,98219.63
2023-09-01T05:38:10.575Z,98226.25
2023-09-01T05:40:37.946Z,98222.56
2023-09-01T05:43:04.630Z,98232.28
2023-09-01T05:45:31.899Z,98228.63
2023-09-01T05:47:58.838Z,98225.75
2023-09-01T05:50:25.541Z,98226.34
2023-09-01T05:52:52.234Z,98226.09
2023-09-01T05:55:18.974Z,98227.56
2023-09-01T05:57:45.656Z,98226.19
2023-09-01T06:00:12.812Z,98224.91
2023-09-01T06:02:39.626Z,98219.34
2023-09-01T06:05:06.876Z,98219.72
2023-09-01T06:07:33.538Z,98225.19
2023-09-01T06:10:00.242Z,98222.19
2023-09-01T06:12:27.006Z,98228.88
2023-09-01T06:14:53.673Z,98220.50
2023-09-01T06:17:29.471Z,98220.38
2023-09-01T06:20:05.510Z,98218.88
2023-09-01T06:22:32.128Z,98222.84
2023-09-01T06:24:58.944Z,98221.41
2023-09-01T06:27:25.706Z,98222.69
2023-09-01T06:29:52.395Z,98224.16
2023-09-01T06:32:19.048Z,98225.91
2023-09-01T06:34:45.720Z,98235.59
2023-09-01T06:37:12.365Z,98236.84
2023-09-01T06:39:38.965Z,98243.06
2023-09-01T06:42:07.424Z,98243.59
2023-09-01T06:44:34.157Z,98237.34
2023-09-01T06:47:00.906Z,98237.13
2023-09-01T06:49:27.577Z,98243.34
2023-09-01T06:51:54.143Z,98232.09
2023-09-01T06:54:20.979Z,98223.56
2023-09-01T06:56:47.656Z,98228.34
2023-09-01T06:59:14.458Z,98228.69
2023-09-01T07:01:41.388Z,98221.91
2023-09-01T07:04:08.450Z,98229.94
2023-09-01T07:06:35.336Z,98220.47
2023-09-01T07:09:02.579Z,98223.75
2023-09-01T07:11:29.298Z,98228.06
2023-09-01T07:13:55.953Z,98239.28
2023-09-01T07:16:22.649Z,98234.06
2023-09-01T07:18:49.319Z,98234.97
2023-09-01T07:21:15.886Z,98222.38
2023-09-01T07:23:42.671Z,98224.22
2023-09-01T07:26:09.345Z,98221.16
2023-09-01T07:28:36.109Z,98226.31
2023-09-01T07:31:02.867Z,98212.50
2023-09-01T07:33:31.629Z,98220.00
2023-09-01T07:35:58.624Z,98215.53
2023-09-01T07:38:25.285Z,98226.31
2023-09-01T07:40:51.918Z,98227.56
2023-09-01T07:43:19.213Z,98228.91
2023-09-01T07:45:46.105Z,98233.63
2023-09-01T07:48:33.218Z,98235.13
2023-09-01T07:50:59.936Z,98234.25
2023-09-01T07:53:27.814Z,98241.84
2023-09-01T07:55:55.364Z,98247.31
2023-09-01T07:58:22.140Z,98244.72
2023-09-01T08:00:49.488Z,98242.22
2023-09-01T08:03:17.569Z,98241.22
2023-09-01T08:05:44.430Z,98233.88
2023-09-01T08:08:14.630Z,98229.16
2023-09-01T08:10:42.767Z,98226.97
2023-09-01T08:13:10.044Z,98237.19
2023-09-01T08:15:36.885Z,98230.88
2023-09-01T08:18:04.219Z,98235.69
2023-09-01T08:20:31.015Z,98234.81
2023-09-01T08:22:57.780Z,98239.84
2023-09-01T08:25:24.544Z,98242.84
2023-09-01T08:27:51.246Z,98250.88
2023-09-01T08:30:17.998Z,98248.81
2023-09-01T08:32:44.816Z,98256.22
2023-09-01T08:35:15.104Z,98251.84
2023-09-01T08:37:41.858Z,98257.19
2023-09-01T08:40:12.328Z,98251.06
2023-09-01T08:42:48.837Z,98251.59
2023-09-01T08:45:20.771Z,98250.81
2023-09-01T08:47:49.780Z,98252.03
2023-09-01T08:50:18.019Z,98251.00
2023-09-01T08:52:46.375Z,98242.44
2023-09-01T08:55:17.412Z,98237.66
2023-09-01T08:57:45.485Z,98236.66
2023-09-01T09:00:12.634Z,98231.53
2023-09-01T09:02:53.043Z,98235.16
2023-09-01T09:05:28.729Z,98234.75
2023-09-01T09:08:06.900Z,98243.41
2023-09-01T09:10:47.701Z,98252.47
2023-09-01T09:13:24.752Z,98252.47
2023-09-01T09:16:06.876Z,98250.69
2023-09-01T09:18:34.368Z,98253.34
2023-09-01T09:21:01.698Z,98257.63
2023-09-01T09:23:47.091Z,98261.59
2023-09-01T09:26:13.983Z,98249.59
2023-09-01T09:28:41.250Z,98244.19
2023-09-01T09:31:08.001Z,98237.81
2023-09-01T09:33:35.680Z,98231.34
2023-09-01T09:36:04.956Z,98240.13
2023-09-01T09:38:47.866Z,98233.44
2023-09-01T09:41:15.326Z,98242.63
2023-09-01T09:43:46.802Z,98249.91
2023-09-01T09:46:15.812Z,98239.19
2023-09-01T09:48:43.327Z,98245.78
2023-09-01T09:51:11.478Z,98257.50
2023-09-01T09:53:42.340Z,98244.19
2023-09-01T09:56:21.254Z,98245.09
2023-09-01T09:58:51.534Z,98244.34
2023-09-01T10:01:23.034Z,98248.84
2023-09-01T10:03:50.932Z,98238.88
2023-09-01T10:06:18.810Z,98242.00
2023-09-01T10:08:46.743Z,98252.16
2023-09-01T10:11:15.366Z,98242.69
2023-09-01T10:13:46.126Z,98253.78
2023-09-01T10:16:14.676Z,98248.50
2023-09-01T10:18:48.663Z,98250.59
2023-09-01T10:21:16.631Z,98240.13
2023-09-01T10:23:44.727Z,98251.56
2023-09-01T10:26:27.644Z,98246.34
2023-09-01T10:28:57.754Z,98241.53
2023-09-01T10:31:25.232Z,98246.78
2023-09-01T10:34:13.645Z,98246.91
2023-09-01T10:36:42.259Z,98254.78
2023-09-01T10:39:18.214Z,98251.28
2023-09-01T10:42:09.107Z,98247.91
2023-09-01T10:44:43.520Z,98247.34
2023-09-01T10:47:32.082Z,98247.34
2023-09-01T10:50:05.493Z,98241.94
2023-09-01T10:52:33.030Z,98244.34
2023-09-01T10:55:06.648Z,98233.59
2023-09-01T10:57:45.463Z,98236.03
2023-09-01T11:00:33.272Z,98240.31
2023-09-01T11:03:31.869Z,98246.28
2023-09-01T11:05:59.937Z,98237.50
2023-09-01T11:08:26.862Z,98240.44
2023-09-01T11:11:08.541Z,98237.03
2023-09-01T11:13:35.309Z,98241.09
2023-09-01T11:16:09.394Z,98245.19
2023-09-01T11:18:36.180Z,98249.25
2023-09-01T11:21:02.956Z,98252.19
2023-09-01T11:23:29.615Z,98251.97
2023-09-01T11:25:57.613Z,98249.44
2023-09-01T11:28:26.837Z,98248.41
2023-09-01T11:30:55.381Z,98255.03
2023-09-01T11:33:27.162Z,98252.78
2023-09-01T11:36:08.319Z,98249.16
2023-09-01T11:38:37.776Z,98246.88
2023-09-01T11:41:14.771Z,98251.19
2023-09-01T11:43:42.817Z,98251.22
2023-09-01T11:46:11.836Z,98253.44
2023-09-01T11:48:38.714Z,98251.88
2023-09-01T11:51:10.311Z,98242.66
2023-09-01T11:53:37.716Z,98244.97
2023-09-01T11:56:24.449Z,98251.13
2023-09-01T11:58:53.581Z,98257.47
2023-09-01T12:01:22.396Z,98245.94
2023-09-01T12:03:54.350Z,98246.50
2023-09-01T12:06:24.765Z,98248.47
2023-09-01T12:08:54.100Z,98245.09
2023-09-01T12:11:23.420Z,98257.47
2023-09-01T12:13:50.482Z,98257.44
2023-09-01T12:16:22.876Z,98256.22
2023-09-01T12:18:50.255Z,98253.03
2023-09-01T12:21:17.347Z,98253.97
2023-09-01T12:23:46.157Z,98254.09
2023-09-01T12:26:17.277Z,98259.94
2023-09-01T12:28:44.828Z,98256.31
2023-09-01T12:31:13.118Z,98255.91
2023-09-01T12:33:41.144Z,98256.13
2023-09-01T12:36:08.257Z,98253.72
2023-09-01T12:38:37.717Z,98255.81
2023-09-01T12:41:04.459Z,98251.09
2023-09-01T12:43:31.349Z,98257.44
2023-09-01T12:45:58.482Z,98256.75
2023-09-01T12:48:25.254Z,98245.19
2023-09-01T12:50:52.216Z,98256.41
2023-09-01T12:53:19.584Z,98247.22
2023-09-01T12:55:48.768Z,98247.56
2023-09-01T12:58:16.020Z,98254.84
2023-09-01T13:00:44.003Z,98252.94
2023-09-01T13:03:10.876Z,98255.47
2023-09-01T13:05:37.738Z,98250.88
2023-09-01T13:08:05.070Z,98254.22
2023-09-01T13:10:31.832Z,98258.91
2023-09-01T13:12:58.724Z,98256.53
2023-09-01T13:15:25.580Z,98253.00
2023-09-01T13:17:52.281Z,98256.75
2023-09-01T13:20:19.114Z,98259.22
2023-09-01T13:22:45.967Z,98255.06
2023-09-01T13:25:12.765Z,98248.81
2023-09-01T13:27:40.226Z,98251.97
2023-09-01T13:30:07.856Z,98244.25
2023-09-01T13:32:35.083Z,98255.97
2023-09-01T13:35:04.192Z,98251.22
2023-09-01T13:37:31.138Z,98248.47
2023-09-01T13:39:59.718Z,98250.81
2023-09-01T13:42:27.567Z,98253.81
2023-09-01T13:44:55.850Z,98247.44
2023-09-01T13:47:23.470Z,98243.69
2023-09-01T13:49:54.875Z,98241.59
2023-09-01T13:52:32.735Z,98243.19
2023-09-01T13:55:07.792Z,98238.84
2023-09-01T13:58:07.198Z,98242.72
2023-09-01T14:01:21.799Z,98243.34
2023-09-01T14:04:02.773Z,98241.56
2023-09-01T14:09:35.874Z,98244.63
2023-09-01T14:12:04.428Z,98238.56
2023-09-01T14:14:31.625Z,98249.50
2023-09-01T14:16:58.386Z,98243.88
2023-09-01T14:19:25.233Z,98250.91
2023-09-01T14:21:52.044Z,98247.72
2023-09-01T14:24:18.766Z,98258.53
2023-09-01T14:26:46.844Z,98244.25
2023-09-01T14:29:13.597Z,98245.69
2023-09-01T14:31:40.268Z,98251.28
2023-09-01T14:34:06.949Z,98244.84
2023-09-01T14:36:33.607Z,98243.22
2023-09-01T14:39:00.252Z,98243.91
2023-09-01T14:41:27.332Z,98256.97
2023-09-01T14:43:54.149Z,98253.66
2023-09-01T14:46:20.964Z,98255.47
2023-09-01T14:48:47.862Z,98255.84
2023-09-01T14:51:16.105Z,98252.03
2023-09-01T14:53:45.664Z,98252.75
2023-09-01T14:56:15.589Z,98252.75
2023-09-01T14:58:42.543Z,98257.56
2023-09-01T15:01:09.416Z,98252.16
2023-09-01T15:03:36.661Z,98268.91
2023-09-01T15:06:03.455Z,98270.97
2023-09-01T15:08:30.180Z,98281.31
2023-09-01T15:11:02.791Z,98276.53
2023-09-01T15:13:29.528Z,98281.00
2023-09-01T15:15:56.181Z,98284.59
2023-09-01T15:18:22.969Z,98279.47
2023-09-01T15:21:02.455Z,98278.09
2023-09-01T15:23:29.130Z,98262.66
2023-09-01T15:25:55.731Z,98267.03
2023-09-01T15:28:22.427Z,98260.44
2023-09-01T15:30:49.130Z,98253.31
2023-09-01T15:33:16.049Z,98253.50
2023-09-01T15:35:42.884Z,98255.16
2023-09-01T15:38:09.534Z,98260.97
2023-09-01T15:40:36.414Z,98264.78
2023-09-01T15:43:03.401Z,98251.41
2023-09-01T15:45:30.262Z,98250.22
2023-09-01T15:47:57.180Z,98238.75
2023-09-01T15:50:31.512Z,98240.03
2023-09-01T15:53:06.271Z,98243.47
2023-09-01T15:55:34.234Z,98236.50
2023-09-01T15:58:02.137Z,98238.16
2023-09-01T16:00:28.916Z,98234.78
2023-09-01T16:02:55.894Z,98232.66
2023-09-01T16:05:23.180Z,98226.72
2023-09-01T16:07:50.035Z,98225.03
2023-09-01T16:10:16.682Z,98218.09
2023-09-01T16:12:43.512Z,98219.28
2023-09-01T16:15:10.678Z,98220.91
2023-09-01T16:17:37.407Z,98217.56
2023-09-01T16:20:04.697Z,98214.94
2023-09-01T16:22:31.328Z,98214.84
2023-09-01T16:24:57.904Z,98216.41
2023-09-01T16:27:25.181Z,98211.22
2023-09-01T16:29:51.897Z,98205.75
2023-09-01T16:32:18.496Z,98207.81
2023-09-01T16:34:45.207Z,98204.41
2023-09-01T16:37:12.341Z,98215.38
2023-09-01T16:39:39.015Z,98214.31
2023-09-01T16:42:05.726Z,98217.09
2023-09-01T16:44:35.120Z,98216.75
2023-09-01T16:47:02.434Z,98213.97
2023-09-01T16:49:30.130Z,98215.44
2023-09-01T16:51:56.850Z,98218.78
2023-09-01T16:54:23.577Z,98224.78
2023-09-01T16:56:50.203Z,98226.84
2023-09-01T16:59:17.205Z,98232.16
2023-09-01T17:01:44.393Z,98234.22
2023-09-01T17:04:11.134Z,98238.97
2023-09-01T17:06:38.044Z,98241.63
2023-09-01T17:09:04.832Z,98237.16
2023-09-01T17:11:31.747Z,98238.88
2023-09-01T17:13:58.885Z,98238.88
2023-09-01T17:16:32.529Z,98231.84
2023-09-01T17:19:01.900Z,98237.16
2023-09-01T17:21:34.472Z,98231.13
2023-09-01T17:24:05.215Z,98231.13
2023-09-01T17:26:44.626Z,98236.78
2023-09-01T17:29:13.828Z,98240.47
2023-09-01T17:31:45.532Z,98240.41
2023-09-01T17:34:12.729Z,98236.28
2023-09-01T17:36:40.408Z,98229.75
2023-09-01T17:39:07.335Z,98229.91
2023-09-01T17:41:39.263Z,98243.72
2023-09-01T17:44:06.967Z,98252.09
2023-09-01T17:46:34.525Z,98257.59
2023-09-01T17:49:10.519Z,98251.16
2023-09-01T17:51:40.843Z,98268.31
2023-09-01T17:54:10.522Z,98267.28
2023-09-01T17:56:37.326Z,98272.59
2023-09-01T17:59:04.084Z,98263.84
2023-09-01T18:01:31.262Z,98268.31
2023-09-01T18:04:01.111Z,98276.00
2023-09-01T18:06:31.906Z,98284.75
2023-09-01T18:09:03.982Z,98283.38
2023-09-01T18:11:32.732Z,98288.09
2023-09-01T18:14:00.297Z,98291.50
2023-09-01T18:16:27.540Z,98289.78
2023-09-01T18:18:57.897Z,98289.16
2023-09-01T18:21:32.986Z,98295.44
2023-09-01T18:24:06.429Z,98294.97
2023-09-01T18:26:33.171Z,98292.78
2023-09-01T18:29:00.559Z,98294.97
2023-09-01T18:31:27.315Z,98296.19
2023-09-01T18:33:54.341Z,98305.13
2023-09-01T18:36:26.111Z,98307.13
2023-09-01T18:38:56.664Z,98311.56
2023-09-01T18:41:24.008Z,98305.53
2023-09-01T18:43:54.188Z,98311.72
2023-09-01T18:46:21.155Z,98317.88
2023-09-01T18:48:47.993Z,98317.19
2023-09-01T18:51:15.065Z,98320.63
2023-09-01T18:53:42.799Z,98324.28
2023-09-01T18:56:09.710Z,98328.34
2023-09-01T18:58:40.834Z,98337.41
2023-09-01T19:01:07.755Z,98338.25
2023-09-01T19:03:34.907Z,98338.25
2023-09-01T19:06:02.178Z,98344.44
2023-09-01T19:08:34.291Z,98355.13
2023-09-01T19:11:09.759Z,98357.00
2023-09-01T19:13:37.779Z,98352.94
2023-09-01T19:16:04.874Z,98356.94
2023-09-01T19:18:40.233Z,98354.19
2023-09-01T19:21:08.196Z,98348.75
2023-09-01T19:23:35.634Z,98352.16
2023-09-01T19:26:12.213Z,98357.47
2023-09-01T19:28:39.309Z,98357.47
2023-09-01T19:31:07.986Z,98355.75
2023-09-01T19:33:40.853Z,98362.00
2023-09-01T19:36:10.365Z,98359.50
2023-09-01T19:38:37.216Z,98369.13
2023-09-01T19:41:04.934Z,98374.34
2023-09-01T19:43:32.966Z,98373.56
2023-09-01T19:46:00.626Z,98386.22
2023-09-01T19:48:31.960Z,98377.31
2023-09-01T19:51:01.325Z,98391.44
2023-09-01T19:53:30.295Z,98393.25
2023-09-01T19:56:00.045Z,98402.16
2023-09-01T19:58:29.342Z,98397.94
2023-09-01T20:00:56.627Z,98402.44
2023-09-01T20:03:25.496Z,98404.50
2023-09-01T20:05:52.923Z,98400.13
2023-09-01T20:08:20.723Z,98406.91
2023-09-01T20:10:49.175Z,98409.47
2023-09-01T20:13:16.900Z,98412.28
2023-09-01T20:15:47.478Z,98414.78
2023-09-01T20:18:18.742Z,98416.34
2023-09-01T20:20:47.088Z,98427.16
2023-09-01T20:23:14.341Z,98417.38
2023-09-01T20:25:43.389Z,98419.09
2023-09-01T20:28:11.505Z,98422.06
2023-09-01T20:30:38.217Z,98418.53
2023-09-01T20:33:05.452Z,98420.09
2023-09-01T20:35:32.182Z,98423.47
2023-09-01T20:37:58.953Z,98427.28
2023-09-01T20:40:25.542Z,98427.44
2023-09-01T20:42:54.264Z,98438.13
2023-09-01T20:45:20.936Z,98431.16
2023-09-01T20:47:48.894Z,98434.75
2023-09-01T20:50:15.999Z,98438.34
2023-09-01T20:52:42.886Z,98452.41
2023-09-01T20:55:11.270Z,98444.34
2023-09-01T20:57:46.198Z,98443.50
2023-09-01T21:00:15.398Z,98445.38
2023-09-01T21:02:49.764Z,98441.09
2023-09-01T21:05:20.643Z,98447.50
2023-09-01T21:07:49.820Z,98449.31
2023-09-01T21:10:18.424Z,98449.41
2023-09-01T21:12:45.301Z,98448.66
2023-09-01T21:15:12.047Z,98454.91
2023-09-01T21:17:38.710Z,98454.88
2023-09-01T21:20:06.285Z,98458.41
2023-09-01T21:22:33.025Z,98458.41
2023-09-01T21:25:00.132Z,98460.47
2023-09-01T21:27:27.058Z,98461.31
2023-09-01T21:29:55.023Z,98458.75
2023-09-01T21:32:22.042Z,98462.47
2023-09-01T21:34:49.548Z,98467.69
2023-09-01T21:37:16.608Z,98465.88
2023-09-01T21:39:43.497Z,98474.78
2023-09-01T21:42:10.255Z,98472.78
2023-09-01T21:44:36.977Z,98488.88
2023-09-01T21:47:04.176Z,98491.81
2023-09-01T21:49:31.311Z,98490.88
2023-09-01T21:51:57.933Z,98489.94
2023-09-01T21:54:24.702Z,98492.59
2023-09-01T21:56:51.514Z,98491.81
2023-09-01T21:59:18.116Z,98494.59
2023-09-01T22:01:44.747Z,98497.09
2023-09-01T22:04:11.309Z,98493.53
2023-09-01T22:06:37.982Z,98503.19
2023-09-01T22:09:05.452Z,98497.19
2023-09-01T22:11:31.986Z,98502.50
2023-09-01T22:13:58.765Z,98510.38
2023-09-01T22:16:28.369Z,98505.06
2023-09-01T22:18:55.631Z,98504.13
2023-09-01T22:21:23.326Z,98510.22
2023-09-01T22:23:51.280Z,98513.81
2023-09-01T22:26:18.032Z,98506.78
2023-09-01T22:28:44.704Z,98502.34
2023-09-01T22:31:11.441Z,98505.06
2023-09-01T22:33:38.168Z,98519.13
2023-09-01T22:36:07.501Z,98512.88
2023-09-01T22:38:36.162Z,98519.97
2023-09-01T22:41:02.975Z,98520.84
2023-09-01T22:43:30.618Z,98524.41
2023-09-01T22:45:57.400Z,98514.09
2023-09-01T22:48:24.392Z,98521.09
2023-09-01T22:50:51.270Z,98528.22
2023-09-01T22:53:18.625Z,98526.41
2023-09-01T22:55:46.163Z,98519.91
2023-09-01T22:58:12.974Z,98525.63
2023-09-01T23:00:41.158Z,98525.00
2023-09-01T23:03:09.347Z,98519.81
2023-09-01T23:05:36.626Z,98516.66
2023-09-01T23:08:03.726Z,98522.25
2023-09-01T23:10:30.586Z,98528.56
2023-09-01T23:12:57.235Z,98524.25
2023-09-01T23:15:27.689Z,98535.84
2023-09-01T23:17:55.322Z,98537.66
2023-09-01T23:20:24.452Z,98533.16
2023-09-01T23:22:51.404Z,98543.03
2023-09-01T23:25:19.796Z,98542.25
2023-09-01T23:27:46.705Z,98542.44
2023-09-01T23:30:15.000Z,98549.47
2023-09-01T23:32:41.807Z,98547.88
2023-09-01T23:35:08.669Z,98543.72
2023-09-01T23:37:40.119Z,98551.03
2023-09-01T23:40:10.516Z,98553.16
2023-09-01T23:42:38.106Z,98555.88
2023-09-01T23:45:05.699Z,98554.34
2023-09-01T23:47:32.396Z,98558.09
2023-09-01T23:49:59.174Z,98554.66
2023-09-01T23:52:26.279Z,98550.53
2023-09-01T23:54:53.502Z,98555.34
2023-09-01T23:57:20.100Z,98550.13
2023-09-01T23:59:47.284Z,98547.53
